Kota Kinabalu, Malaysia
Current Conditions -  °F | °C
As of 11:00 AM on Saturday 22 Nov 2014 (Local Time) from WBKK Reporting Station
Broken Clouds Broken Clouds  
Wind Chill: 32°   Ceiling: 30000
Heat Index: 42°   Visibility: 6mi
Dew Point: 27°   Wind: 2mph
Humidity: 75%   Direction: 300°WNW
Pressure: 29.83"   Gusts: NA
Location:  5.97°N, 116.07°E
Report Text: WBKK 220300Z 30002KT 9999 FEW015 BKN300 32/27 Q1010 NOSIG
Loading
Personal Weather Stations






























Interactive Weather Map New forecast layout! Learn more

10-Day Weather Forecast

Advertisements
Track Severe Weather on mobile